createdAt,value
2022-10-17T00:01:00.931Z,8.51
2022-10-17T00:03:34.749Z,8.49
2022-10-17T00:06:12.140Z,8.45
2022-10-17T00:08:42.056Z,8.39
2022-10-17T00:11:20.986Z,8.36
2022-10-17T00:13:50.489Z,8.33
2022-10-17T00:16:29.654Z,8.31
2022-10-17T00:18:57.594Z,8.27
2022-10-17T00:21:26.242Z,8.22
2022-10-17T00:23:54.639Z,8.16
2022-10-17T00:26:23.126Z,8.10
2022-10-17T00:28:52.622Z,8.05
2022-10-17T00:31:22.273Z,8.01
2022-10-17T00:33:51.627Z,7.96
2022-10-17T00:36:23.380Z,7.93
2022-10-17T00:38:55.949Z,7.89
2022-10-17T00:41:31.976Z,7.88
2022-10-17T00:44:06.634Z,7.88
2022-10-17T00:46:38.984Z,7.88
2022-10-17T00:49:12.522Z,7.85
2022-10-17T00:51:40.356Z,7.82
2022-10-17T00:54:09.655Z,7.80
2022-10-17T00:56:38.440Z,7.75
2022-10-17T00:59:10.951Z,7.74
2022-10-17T01:01:41.653Z,7.75
2022-10-17T01:04:09.951Z,7.75
2022-10-17T01:06:40.496Z,7.75
2022-10-17T01:09:08.507Z,7.71
2022-10-17T01:11:52.394Z,7.66
2022-10-17T01:14:39.034Z,7.62
2022-10-17T01:17:35.360Z,7.60
2022-10-17T01:20:23.254Z,7.54
2022-10-17T01:23:10.794Z,7.46
2022-10-17T01:26:16.186Z,7.42
2022-10-17T01:29:16.474Z,7.40
2022-10-17T01:31:50.644Z,7.37
2022-10-17T01:34:32.582Z,7.40
2022-10-17T01:37:20.402Z,7.45
2022-10-17T01:40:04.950Z,7.48
2022-10-17T01:42:59.502Z,7.51
2022-10-17T01:45:53.995Z,7.56
2022-10-17T01:48:30.920Z,7.60
2022-10-17T01:51:06.041Z,7.64
2022-10-17T01:53:39.620Z,7.68
2022-10-17T01:56:10.199Z,7.72
2022-10-17T01:58:44.265Z,7.76
2022-10-17T02:01:13.394Z,7.79
2022-10-17T02:03:44.704Z,7.78
2022-10-17T02:06:12.536Z,7.77
2022-10-17T02:08:51.159Z,7.76
2022-10-17T02:11:23.964Z,7.79
2022-10-17T02:14:13.786Z,7.84
2022-10-17T02:17:00.102Z,7.81
2022-10-17T02:19:46.727Z,7.77
2022-10-17T02:22:33.427Z,7.75
2022-10-17T02:25:07.857Z,7.74
2022-10-17T02:27:47.949Z,7.76
2022-10-17T02:30:42.247Z,7.72
2022-10-17T02:33:35.546Z,7.64
2022-10-17T02:36:09.811Z,7.54
2022-10-17T02:38:39.481Z,7.49
2022-10-17T02:41:11.852Z,7.45
2022-10-17T02:43:40.596Z,7.39
2022-10-17T02:46:08.528Z,7.32
2022-10-17T02:48:44.247Z,7.25
2022-10-17T02:51:29.874Z,7.17
2022-10-17T02:54:17.516Z,7.13
2022-10-17T02:57:09.782Z,7.09
2022-10-17T02:59:41.542Z,7.08
2022-10-17T03:02:09.458Z,7.08
2022-10-17T03:04:38.406Z,7.08
2022-10-17T03:07:06.327Z,7.08
2022-10-17T03:09:34.242Z,7.07
2022-10-17T03:12:02.103Z,7.03
2022-10-17T03:14:30.451Z,7.01
2022-10-17T03:16:58.289Z,6.97
2022-10-17T03:19:26.936Z,6.94
2022-10-17T03:21:56.527Z,6.93
2022-10-17T03:24:24.477Z,6.92
2022-10-17T03:26:52.381Z,6.91
2022-10-17T03:29:20.363Z,6.92
2022-10-17T03:31:48.359Z,6.91
2022-10-17T03:34:18.789Z,6.89
2022-10-17T03:36:46.998Z,6.87
2022-10-17T03:39:15.007Z,6.86
2022-10-17T03:41:43.084Z,6.82
2022-10-17T03:44:11.005Z,6.80
2022-10-17T03:46:39.235Z,6.78
2022-10-17T03:49:09.504Z,6.80
2022-10-17T03:51:37.696Z,6.78
2022-10-17T03:54:09.335Z,6.75
2022-10-17T03:56:38.030Z,6.76
2022-10-17T03:59:13.517Z,6.77
2022-10-17T04:01:42.192Z,6.78
2022-10-17T04:04:10.815Z,6.78
2022-10-17T04:06:38.797Z,6.80
2022-10-17T04:09:07.527Z,6.85
2022-10-17T04:11:58.153Z,6.87
2022-10-17T04:14:26.074Z,6.84
2022-10-17T04:16:54.165Z,6.85
2022-10-17T04:19:22.289Z,6.85
2022-10-17T04:21:50.632Z,6.87
2022-10-17T04:24:18.686Z,6.87
2022-10-17T04:26:58.540Z,6.89
2022-10-17T04:29:28.941Z,6.90
2022-10-17T04:32:05.542Z,6.87
2022-10-17T04:34:41.745Z,6.82
2022-10-17T04:37:09.867Z,6.75
2022-10-17T04:39:37.873Z,6.73
2022-10-17T04:42:06.328Z,6.71
2022-10-17T04:44:35.677Z,6.70
2022-10-17T04:47:03.800Z,6.68
2022-10-17T04:49:31.852Z,6.65
2022-10-17T04:52:06.955Z,6.62
2022-10-17T04:54:40.769Z,6.58
2022-10-17T04:57:10.590Z,6.53
2022-10-17T04:59:39.884Z,6.53
2022-10-17T05:02:33.948Z,6.50
2022-10-17T05:05:02.927Z,6.48
2022-10-17T05:07:30.895Z,6.49
2022-10-17T05:10:11.436Z,6.48
2022-10-17T05:12:41.007Z,6.50
2022-10-17T05:15:09.595Z,6.50
2022-10-17T05:17:37.611Z,6.50
2022-10-17T05:20:06.902Z,6.50
2022-10-17T05:22:38.246Z,6.52
2022-10-17T05:25:09.580Z,6.53
2022-10-17T05:27:38.265Z,6.52
2022-10-17T05:30:07.520Z,6.56
2022-10-17T05:32:36.518Z,6.61
2022-10-17T05:35:05.054Z,6.67
2022-10-17T05:37:33.182Z,6.68
2022-10-17T05:40:01.785Z,6.69
2022-10-17T05:42:31.166Z,6.68
2022-10-17T05:44:59.628Z,6.68
2022-10-17T05:47:28.013Z,6.69
2022-10-17T05:49:56.061Z,6.69
2022-10-17T05:52:28.690Z,6.68
2022-10-17T05:55:08.415Z,6.74
2022-10-17T05:57:36.471Z,6.81
2022-10-17T06:00:08.724Z,6.89
2022-10-17T06:02:46.060Z,7.00
2022-10-17T06:05:16.032Z,7.12
2022-10-17T06:07:44.785Z,7.19
2022-10-17T06:10:16.389Z,7.29
2022-10-17T06:12:44.499Z,7.42
2022-10-17T06:15:13.286Z,7.53
2022-10-17T06:17:44.192Z,7.66
2022-10-17T06:20:12.293Z,7.81
2022-10-17T06:22:40.187Z,7.95
2022-10-17T06:25:13.802Z,8.13
2022-10-17T06:27:42.489Z,8.26
2022-10-17T06:30:11.630Z,8.36
2022-10-17T06:32:39.600Z,8.46
2022-10-17T06:35:08.003Z,8.55
2022-10-17T06:37:38.103Z,8.63
2022-10-17T06:40:12.213Z,8.72
2022-10-17T06:42:41.161Z,8.85
2022-10-17T06:45:29.347Z,8.98
2022-10-17T06:48:18.949Z,9.11
2022-10-17T06:51:11.401Z,9.25
2022-10-17T06:53:49.754Z,9.40
2022-10-17T06:56:30.748Z,9.55
2022-10-17T06:59:15.790Z,9.69
2022-10-17T07:01:51.384Z,9.84
2022-10-17T07:04:19.758Z,9.96
2022-10-17T07:06:47.703Z,10.07
2022-10-17T07:09:19.025Z,10.21
2022-10-17T07:11:47.133Z,10.35
2022-10-17T07:14:18.400Z,10.51
2022-10-17T07:16:47.405Z,10.66
2022-10-17T07:19:19.259Z,10.82
2022-10-17T07:21:47.278Z,10.96
2022-10-17T07:24:15.111Z,11.10
2022-10-17T07:26:47.147Z,11.25
2022-10-17T07:29:15.722Z,11.38
2022-10-17T07:31:49.010Z,11.52
2022-10-17T07:34:16.871Z,11.66
2022-10-17T07:36:46.187Z,11.78
2022-10-17T07:39:15.581Z,11.92
2022-10-17T07:41:43.479Z,12.06
2022-10-17T07:44:11.698Z,12.20
2022-10-17T07:46:45.948Z,12.35
2022-10-17T07:49:14.149Z,12.49
2022-10-17T07:51:42.454Z,12.62
2022-10-17T07:54:10.740Z,12.73
2022-10-17T07:56:38.666Z,12.85
2022-10-17T07:59:09.186Z,12.97
2022-10-17T08:01:38.000Z,13.10
2022-10-17T08:04:05.811Z,13.24
2022-10-17T08:06:33.824Z,13.36
2022-10-17T08:09:02.200Z,13.49
2022-10-17T08:11:30.084Z,13.62
2022-10-17T08:13:57.964Z,13.77
2022-10-17T08:16:25.881Z,13.89
2022-10-17T08:18:54.091Z,14.03
2022-10-17T08:21:22.447Z,14.17
2022-10-17T08:23:50.369Z,14.31
2022-10-17T08:26:20.119Z,14.46
2022-10-17T08:28:48.701Z,14.63
2022-10-17T08:31:19.765Z,14.80
2022-10-17T08:33:49.445Z,14.96
2022-10-17T08:36:19.006Z,15.12
2022-10-17T08:38:52.415Z,15.26
2022-10-17T08:41:39.505Z,15.43
2022-10-17T08:44:16.174Z,15.60
2022-10-17T08:46:48.166Z,15.75
2022-10-17T08:49:37.862Z,15.88
2022-10-17T08:52:15.346Z,16.05
2022-10-17T08:54:48.677Z,16.19
2022-10-17T08:57:18.185Z,16.34
2022-10-17T08:59:52.106Z,16.50
2022-10-17T09:02:39.107Z,16.69
2022-10-17T09:05:31.247Z,16.78
2022-10-17T09:08:03.307Z,16.96
2022-10-17T09:10:31.092Z,17.12
2022-10-17T09:16:18.963Z,17.57
2022-10-17T09:19:01.208Z,17.78
2022-10-17T09:21:44.868Z,17.90
2022-10-17T09:24:33.881Z,18.01
2022-10-17T09:27:02.928Z,18.18
2022-10-17T09:29:36.932Z,18.39
2022-10-17T09:32:20.969Z,18.57
2022-10-17T09:34:49.003Z,18.72
2022-10-17T09:37:17.870Z,18.90
2022-10-17T09:39:46.067Z,19.06
2022-10-17T09:42:19.433Z,19.13
2022-10-17T09:44:52.997Z,19.34
2022-10-17T09:47:45.778Z,19.64
2022-10-17T09:50:25.428Z,20.04
2022-10-17T09:52:54.378Z,20.42
2022-10-17T09:55:45.513Z,20.86
2022-10-17T09:58:13.429Z,21.25
2022-10-17T10:00:43.670Z,21.51
2022-10-17T10:03:17.469Z,21.83
2022-10-17T10:06:05.126Z,22.08
2022-10-17T10:08:37.285Z,22.30
2022-10-17T10:11:11.830Z,22.55
2022-10-17T10:13:43.228Z,22.77
2022-10-17T10:16:32.533Z,23.00
2022-10-17T10:19:00.521Z,23.37
2022-10-17T10:21:29.334Z,23.74
2022-10-17T10:24:13.338Z,24.02
2022-10-17T10:26:45.143Z,24.32
2022-10-17T10:29:36.760Z,24.62
2022-10-17T10:32:09.038Z,24.72
2022-10-17T10:34:39.519Z,24.91
2022-10-17T10:37:18.452Z,25.09
2022-10-17T10:39:50.696Z,25.23
2022-10-17T10:42:31.647Z,25.41
2022-10-17T10:45:43.346Z,25.87
2022-10-17T10:48:25.475Z,26.05
2022-10-17T10:50:58.089Z,26.05
2022-10-17T10:53:44.708Z,26.51
2022-10-17T10:56:19.946Z,26.74
2022-10-17T10:59:00.605Z,26.57
2022-10-17T11:01:45.952Z,26.67
2022-10-17T11:04:19.849Z,27.09
2022-10-17T11:06:50.754Z,27.53
2022-10-17T11:09:55.920Z,27.79
2022-10-17T11:12:35.850Z,27.94
2022-10-17T11:15:09.690Z,28.47
2022-10-17T11:17:44.027Z,28.44
2022-10-17T11:20:23.150Z,28.59
2022-10-17T11:22:58.863Z,28.91
2022-10-17T11:25:41.091Z,28.88
2022-10-17T11:28:15.683Z,29.38
2022-10-17T11:31:03.315Z,29.80
2022-10-17T11:33:36.784Z,30.30
2022-10-17T11:36:08.272Z,30.75
2022-10-17T11:38:47.644Z,31.29
2022-10-17T11:41:34.680Z,30.90
2022-10-17T11:44:23.421Z,31.35
2022-10-17T11:47:11.507Z,31.32
2022-10-17T11:49:47.281Z,31.64
2022-10-17T11:53:02.643Z,31.55
2022-10-17T11:55:32.301Z,31.69
2022-10-17T11:58:12.425Z,32.36
2022-10-17T12:00:48.994Z,32.19
2022-10-17T12:03:23.532Z,32.17
2022-10-17T12:06:04.853Z,32.25
2022-10-17T12:08:47.291Z,32.76
2022-10-17T12:11:23.481Z,32.88
2022-10-17T12:13:54.598Z,32.38
2022-10-17T12:16:23.352Z,32.21
2022-10-17T12:19:19.616Z,32.26
2022-10-17T12:21:57.968Z,31.86
2022-10-17T12:24:40.050Z,31.99
2022-10-17T12:27:38.560Z,31.94
2022-10-17T12:30:06.958Z,32.02
2022-10-17T12:33:03.791Z,32.45
2022-10-17T12:35:25.733Z,32.78
2022-10-17T12:37:57.317Z,32.31
2022-10-17T12:40:35.608Z,31.74
2022-10-17T12:43:15.493Z,31.26
2022-10-17T12:45:51.963Z,31.50
2022-10-17T12:49:02.266Z,31.35
2022-10-17T12:51:35.698Z,31.46
2022-10-17T12:54:16.116Z,31.58
2022-10-17T12:56:49.166Z,32.23
2022-10-17T12:59:21.890Z,32.61
2022-10-17T13:01:53.613Z,32.71
2022-10-17T13:04:22.077Z,33.42
2022-10-17T13:06:54.469Z,33.95
2022-10-17T13:09:52.209Z,34.68
2022-10-17T13:12:27.728Z,34.88
2022-10-17T13:14:56.325Z,35.18
2022-10-17T13:17:31.223Z,35.20
2022-10-17T13:19:59.299Z,35.40
2022-10-17T13:22:33.005Z,35.58
2022-10-17T13:25:16.022Z,35.84
2022-10-17T13:27:44.257Z,36.25
2022-10-17T13:30:32.411Z,36.47
2022-10-17T13:33:02.318Z,36.70
2022-10-17T13:35:59.034Z,36.65
2022-10-17T13:38:28.494Z,36.69
2022-10-17T13:41:05.930Z,36.78
2022-10-17T13:43:39.083Z,36.42
2022-10-17T13:46:32.546Z,36.20
2022-10-17T13:48:59.370Z,36.26
2022-10-17T13:51:27.780Z,35.95
2022-10-17T13:53:56.189Z,35.84
2022-10-17T13:56:28.784Z,36.04
2022-10-17T13:59:01.453Z,35.89
2022-10-17T14:01:30.259Z,35.94
2022-10-17T14:04:08.861Z,35.18
2022-10-17T14:06:46.229Z,33.85
2022-10-17T14:09:29.435Z,32.69
2022-10-17T14:12:16.619Z,31.52
2022-10-17T14:15:11.497Z,30.62
2022-10-17T14:17:39.564Z,29.87
2022-10-17T14:20:48.241Z,29.19
2022-10-17T14:23:21.620Z,28.43
2022-10-17T14:25:46.963Z,27.84
2022-10-17T14:28:16.989Z,27.24
2022-10-17T14:30:56.674Z,26.68
2022-10-17T14:33:30.336Z,26.13
2022-10-17T14:36:00.805Z,25.68
2022-10-17T14:38:30.424Z,25.28
2022-10-17T14:41:42.573Z,24.88
2022-10-17T14:44:30.955Z,24.36
2022-10-17T14:47:30.291Z,23.91
2022-10-17T14:50:04.148Z,23.52
2022-10-17T14:52:33.441Z,23.23
2022-10-17T14:55:22.179Z,22.96
2022-10-17T14:57:50.284Z,22.68
2022-10-17T15:00:20.394Z,22.42
2022-10-17T15:02:49.821Z,22.20
2022-10-17T15:05:19.491Z,21.97
2022-10-17T15:07:47.332Z,21.73
2022-10-17T15:10:24.622Z,21.55
2022-10-17T15:12:59.229Z,21.48
2022-10-17T15:15:39.212Z,21.44
2022-10-17T15:18:08.100Z,21.38
2022-10-17T15:20:36.033Z,21.28
2022-10-17T15:23:04.599Z,21.14
2022-10-17T15:25:32.682Z,20.96
2022-10-17T15:28:00.508Z,20.77
2022-10-17T15:30:32.527Z,20.58
2022-10-17T15:33:00.760Z,20.41
2022-10-17T15:35:29.090Z,20.24
2022-10-17T15:37:56.977Z,20.05
2022-10-17T15:40:30.087Z,19.83
2022-10-17T15:42:58.289Z,19.67
2022-10-17T15:45:26.214Z,19.57
2022-10-17T15:47:57.040Z,19.44
2022-10-17T15:50:24.945Z,19.27
2022-10-17T15:52:52.838Z,19.11
2022-10-17T15:55:20.804Z,18.94
2022-10-17T15:57:49.204Z,18.76
2022-10-17T16:00:21.004Z,18.65
2022-10-17T16:02:49.827Z,18.50
2022-10-17T16:05:25.653Z,18.31
2022-10-17T16:07:54.172Z,18.14
2022-10-17T16:10:23.188Z,18.00
2022-10-17T16:12:51.243Z,17.88
2022-10-17T16:15:25.011Z,17.74
2022-10-17T16:17:54.484Z,17.61
2022-10-17T16:20:23.837Z,17.47
2022-10-17T16:22:59.683Z,17.35
2022-10-17T16:25:29.354Z,17.23
2022-10-17T16:27:59.792Z,17.11
2022-10-17T16:30:29.671Z,17.03
2022-10-17T16:32:57.693Z,16.96
2022-10-17T16:35:31.931Z,16.89
2022-10-17T16:38:03.225Z,16.80
2022-10-17T16:40:31.998Z,16.71
2022-10-17T16:43:00.140Z,16.61
2022-10-17T16:45:28.088Z,16.48
2022-10-17T16:47:56.121Z,16.39
2022-10-17T16:50:24.591Z,16.31
2022-10-17T16:52:52.567Z,16.21
2022-10-17T16:55:20.626Z,16.11
2022-10-17T16:57:49.297Z,15.99
2022-10-17T17:00:18.068Z,15.88
2022-10-17T17:02:48.931Z,15.77
2022-10-17T17:05:16.796Z,15.66
2022-10-17T17:07:47.424Z,15.55
2022-10-17T17:10:16.367Z,15.44
2022-10-17T17:12:44.344Z,15.36
2022-10-17T17:15:12.207Z,15.26
2022-10-17T17:17:55.952Z,15.16
2022-10-17T17:20:24.272Z,15.05
2022-10-17T17:22:52.428Z,14.98
2022-10-17T17:25:21.289Z,14.91
2022-10-17T17:27:49.192Z,14.83
2022-10-17T17:30:17.221Z,14.76
2022-10-17T17:32:45.150Z,14.70
2022-10-17T17:35:13.031Z,14.68
2022-10-17T17:37:40.920Z,14.64
2022-10-17T17:40:09.280Z,14.58
2022-10-17T17:42:37.176Z,14.54
2022-10-17T17:45:05.683Z,14.49
2022-10-17T17:47:33.663Z,14.40
2022-10-17T17:50:03.334Z,14.33
2022-10-17T17:52:31.507Z,14.28
2022-10-17T17:54:59.596Z,14.18
2022-10-17T17:57:29.477Z,14.05
2022-10-17T17:59:57.455Z,13.96
2022-10-17T18:02:25.497Z,13.89
2022-10-17T18:04:53.418Z,13.82
2022-10-17T18:07:21.377Z,13.75
2022-10-17T18:09:50.981Z,13.70
2022-10-17T18:12:18.923Z,13.66
2022-10-17T18:14:47.736Z,13.62
2022-10-17T18:17:15.676Z,13.60
2022-10-17T18:19:43.596Z,13.58
2022-10-17T18:22:11.583Z,13.53
2022-10-17T18:24:39.408Z,13.46
2022-10-17T18:27:07.475Z,13.38
2022-10-17T18:29:35.488Z,13.31
2022-10-17T18:32:03.376Z,13.24
2022-10-17T18:34:31.205Z,13.18
2022-10-17T18:36:59.996Z,13.16
2022-10-17T18:39:27.999Z,13.08
2022-10-17T18:41:55.897Z,13.03
2022-10-17T18:44:23.904Z,13.00
2022-10-17T18:46:51.780Z,12.96
2022-10-17T18:49:20.708Z,12.88
2022-10-17T18:51:48.958Z,12.80
2022-10-17T18:54:21.608Z,12.76
2022-10-17T18:56:52.193Z,12.72
2022-10-17T18:59:20.799Z,12.70
2022-10-17T19:01:49.040Z,12.65
2022-10-17T19:04:16.983Z,12.58
2022-10-17T19:06:44.906Z,12.52
2022-10-17T19:09:14.167Z,12.44
2022-10-17T19:11:42.912Z,12.41
2022-10-17T19:14:13.492Z,12.42
2022-10-17T19:16:47.733Z,12.42
2022-10-17T19:19:21.853Z,12.41
2022-10-17T19:21:50.235Z,12.33
2022-10-17T19:24:21.828Z,12.25
2022-10-17T19:26:53.436Z,12.18
2022-10-17T19:29:24.470Z,12.12
2022-10-17T19:31:52.562Z,12.06
2022-10-17T19:34:20.587Z,12.01
2022-10-17T19:36:48.856Z,11.97
2022-10-17T19:39:22.803Z,11.92
2022-10-17T19:41:50.918Z,11.83
2022-10-17T19:44:18.934Z,11.77
2022-10-17T19:46:49.502Z,11.71
2022-10-17T19:49:17.710Z,11.65
2022-10-17T19:51:45.899Z,11.63
2022-10-17T19:54:15.228Z,11.59
2022-10-17T19:56:43.581Z,11.52
2022-10-17T19:59:13.896Z,11.40
2022-10-17T20:01:42.665Z,11.30
2022-10-17T20:04:12.292Z,11.23
2022-10-17T20:06:41.319Z,11.20
2022-10-17T20:09:14.051Z,11.17
2022-10-17T20:11:44.927Z,11.16
2022-10-17T20:14:12.851Z,11.14
2022-10-17T20:16:40.723Z,11.14
2022-10-17T20:19:11.189Z,11.14
2022-10-17T20:21:39.950Z,11.14
2022-10-17T20:24:11.598Z,11.16
2022-10-17T20:26:40.548Z,11.20
2022-10-17T20:29:13.211Z,11.18
2022-10-17T20:31:43.585Z,11.15
2022-10-17T20:34:13.947Z,11.11
2022-10-17T20:36:42.123Z,11.09
2022-10-17T20:39:12.279Z,11.08
2022-10-17T20:41:40.668Z,11.07
2022-10-17T20:44:08.828Z,11.08
2022-10-17T20:46:39.768Z,11.08
2022-10-17T20:49:18.356Z,11.05
2022-10-17T20:51:46.647Z,11.04
2022-10-17T20:54:14.649Z,11.03
2022-10-17T20:56:42.567Z,11.01
2022-10-17T20:59:16.589Z,11.00
2022-10-17T21:01:45.462Z,10.99
2022-10-17T21:07:02.317Z,10.91
2022-10-17T21:09:31.647Z,10.86
2022-10-17T21:14:36.424Z,10.69
2022-10-17T21:17:05.407Z,10.63
2022-10-17T21:19:34.036Z,10.57
2022-10-17T21:22:01.870Z,10.52
2022-10-17T21:24:30.993Z,10.49
2022-10-17T21:26:59.014Z,10.46
2022-10-17T21:29:26.957Z,10.41
2022-10-17T21:31:54.848Z,10.37
2022-10-17T21:34:26.506Z,10.34
2022-10-17T21:36:54.439Z,10.33
2022-10-17T21:39:24.829Z,10.29
2022-10-17T21:41:53.767Z,10.27
2022-10-17T21:44:25.247Z,10.22
2022-10-17T21:46:54.296Z,10.20
2022-10-17T21:49:24.272Z,10.15
2022-10-17T21:51:52.669Z,10.09
2022-10-17T21:54:23.045Z,10.03
2022-10-17T21:56:51.676Z,9.97
2022-10-17T21:59:19.511Z,9.91
2022-10-17T22:01:47.435Z,9.86
2022-10-17T22:04:17.604Z,9.81
2022-10-17T22:06:47.493Z,9.79
2022-10-17T22:09:18.577Z,9.75
2022-10-17T22:11:49.474Z,9.72
2022-10-17T22:14:19.502Z,9.71
2022-10-17T22:16:49.002Z,9.68
2022-10-17T22:19:20.275Z,9.64
2022-10-17T22:21:48.825Z,9.61
2022-10-17T22:24:18.561Z,9.61
2022-10-17T22:26:46.764Z,9.60
2022-10-17T22:29:14.736Z,9.58
2022-10-17T22:31:42.868Z,9.58
2022-10-17T22:34:13.513Z,9.59
2022-10-17T22:36:42.464Z,9.60
2022-10-17T22:39:11.123Z,9.60
2022-10-17T22:41:39.110Z,9.59
2022-10-17T22:44:07.189Z,9.57
2022-10-17T22:46:35.996Z,9.53
2022-10-17T22:49:04.304Z,9.48
2022-10-17T22:51:32.181Z,9.48
2022-10-17T22:54:00.042Z,9.50
2022-10-17T22:56:28.131Z,9.46
2022-10-17T22:58:56.010Z,9.46
2022-10-17T23:01:25.836Z,9.45
2022-10-17T23:03:54.092Z,9.42
2022-10-17T23:06:23.871Z,9.37
2022-10-17T23:08:52.360Z,9.31
2022-10-17T23:11:21.036Z,9.26
2022-10-17T23:13:49.142Z,9.21
2022-10-17T23:16:17.299Z,9.18
2022-10-17T23:18:45.640Z,9.18
2022-10-17T23:21:13.694Z,9.14
2022-10-17T23:23:41.796Z,9.10
2022-10-17T23:26:12.457Z,9.09
2022-10-17T23:28:41.221Z,9.06
2022-10-17T23:31:18.376Z,9.01
2022-10-17T23:33:47.622Z,8.96
2022-10-17T23:36:18.126Z,8.92
2022-10-17T23:38:47.670Z,8.87
2022-10-17T23:41:16.635Z,8.84
2022-10-17T23:43:44.873Z,8.81
2022-10-17T23:46:13.108Z,8.75
2022-10-17T23:48:41.241Z,8.73
2022-10-17T23:51:10.428Z,8.71
2022-10-17T23:53:39.201Z,8.65
2022-10-17T23:56:09.090Z,8.59
2022-10-17T23:58:38.105Z,8.54
